createdAt,value
2018-02-08T00:00:14.691Z,51.38
2018-02-08T00:02:40.901Z,51.24
2018-02-08T00:05:07.756Z,51.73
2018-02-08T00:07:33.975Z,51.83
2018-02-08T00:10:00.250Z,51.79
2018-02-08T00:12:26.442Z,51.71
2018-02-08T00:14:52.659Z,51.87
2018-02-08T00:17:18.921Z,51.93
2018-02-08T00:19:45.464Z,51.88
2018-02-08T00:22:23.981Z,51.88
2018-02-08T00:24:50.183Z,51.94
2018-02-08T00:27:16.405Z,51.89
2018-02-08T00:29:42.685Z,51.84
2018-02-08T00:32:08.886Z,51.91
2018-02-08T00:34:35.095Z,52.14
2018-02-08T00:37:01.360Z,51.69
2018-02-08T00:39:27.558Z,51.73
2018-02-08T00:41:53.764Z,51.70
2018-02-08T00:44:20.004Z,51.81
2018-02-08T00:46:46.198Z,51.57
2018-02-08T00:49:12.463Z,51.58
2018-02-08T00:51:38.741Z,51.84
2018-02-08T00:54:04.949Z,51.63
2018-02-08T00:56:31.171Z,51.57
2018-02-08T00:58:57.438Z,51.60
2018-02-08T01:01:23.676Z,51.51
2018-02-08T01:03:49.882Z,51.52
2018-02-08T01:06:16.140Z,51.49
2018-02-08T01:08:42.680Z,51.45
2018-02-08T01:11:09.216Z,51.37
2018-02-08T01:13:35.444Z,51.42
2018-02-08T01:16:01.667Z,51.42
2018-02-08T01:18:28.203Z,51.45
2018-02-08T01:20:54.402Z,51.49
2018-02-08T01:23:20.569Z,51.52
2018-02-08T01:25:46.779Z,51.40
2018-02-08T01:28:12.935Z,51.37
2018-02-08T01:30:39.107Z,51.45
2018-02-08T01:33:05.314Z,51.46
2018-02-08T01:35:31.495Z,51.42
2018-02-08T01:37:58.330Z,51.38
2018-02-08T01:40:24.486Z,51.32
2018-02-08T01:42:50.996Z,51.40
2018-02-08T01:45:17.217Z,51.46
2018-02-08T01:47:43.387Z,51.41
2018-02-08T01:50:09.540Z,51.43
2018-02-08T01:52:35.746Z,51.44
2018-02-08T01:55:01.919Z,51.81
2018-02-08T01:57:28.104Z,51.75
2018-02-08T01:59:54.585Z,51.54
2018-02-08T02:02:20.750Z,51.64
2018-02-08T02:04:47.153Z,51.63
2018-02-08T02:07:13.366Z,51.53
2018-02-08T02:09:39.546Z,51.49
2018-02-08T02:12:05.700Z,51.59
2018-02-08T02:14:31.929Z,51.70
2018-02-08T02:16:58.394Z,51.80
2018-02-08T02:19:24.557Z,51.85
2018-02-08T02:21:51.510Z,51.85
2018-02-08T02:24:17.998Z,51.74
2018-02-08T02:26:44.170Z,51.85
2018-02-08T02:29:10.804Z,51.87
2018-02-08T02:31:36.986Z,51.85
2018-02-08T02:34:03.427Z,51.94
2018-02-08T02:36:29.997Z,51.89
2018-02-08T02:38:56.161Z,51.95
2018-02-08T02:41:22.631Z,52.03
2018-02-08T02:43:49.308Z,51.94
2018-02-08T02:46:15.478Z,51.92
2018-02-08T02:48:41.642Z,51.94
2018-02-08T02:51:07.838Z,51.97
2018-02-08T02:53:34.271Z,52.03
2018-02-08T02:56:00.523Z,51.92
2018-02-08T02:58:26.712Z,51.97
2018-02-08T03:00:53.134Z,52.02
2018-02-08T03:03:19.336Z,51.97
2018-02-08T03:05:45.501Z,51.94
2018-02-08T03:08:11.667Z,52.18
2018-02-08T03:10:38.217Z,52.39
2018-02-08T03:13:04.374Z,52.34
2018-02-08T03:15:30.532Z,52.38
2018-02-08T03:17:56.761Z,52.34
2018-02-08T03:20:22.932Z,52.31
2018-02-08T03:22:49.103Z,52.48
2018-02-08T03:25:15.325Z,52.66
2018-02-08T03:27:41.477Z,52.56
2018-02-08T03:30:07.678Z,52.42
2018-02-08T03:32:33.903Z,52.37
2018-02-08T03:35:00.075Z,52.38
2018-02-08T03:37:26.254Z,52.28
2018-02-08T03:39:52.815Z,52.20
2018-02-08T03:42:19.260Z,52.08
2018-02-08T03:44:45.419Z,52.04
2018-02-08T03:47:11.944Z,52.62
2018-02-08T03:49:38.350Z,52.48
2018-02-08T03:52:04.882Z,52.50
2018-02-08T03:54:31.423Z,52.39
2018-02-08T03:56:57.700Z,52.28
2018-02-08T03:59:24.176Z,52.39
2018-02-08T04:01:50.405Z,52.23
2018-02-08T04:04:16.937Z,52.35
2018-02-08T04:06:43.091Z,52.20
2018-02-08T04:09:09.277Z,52.34
2018-02-08T04:11:35.453Z,52.30
2018-02-08T04:14:01.675Z,52.32
2018-02-08T04:16:27.831Z,52.27
2018-02-08T04:18:53.985Z,52.31
2018-02-08T04:21:20.559Z,52.34
2018-02-08T04:23:46.719Z,52.61
2018-02-08T04:26:12.871Z,52.43
2018-02-08T04:28:39.075Z,52.30
2018-02-08T04:31:05.247Z,52.94
2018-02-08T04:33:31.405Z,52.91
2018-02-08T04:35:57.633Z,52.84
2018-02-08T04:38:35.892Z,52.69
2018-02-08T04:41:14.336Z,52.53
2018-02-08T04:43:52.946Z,52.43
2018-02-08T04:46:31.443Z,52.39
2018-02-08T04:48:57.601Z,52.39
2018-02-08T04:51:23.755Z,52.21
2018-02-08T04:53:49.960Z,52.09
2018-02-08T04:56:16.369Z,52.41
2018-02-08T04:58:42.555Z,52.29
2018-02-08T05:01:09.033Z,52.16
2018-02-08T05:03:35.463Z,52.19
2018-02-08T05:06:01.627Z,52.35
2018-02-08T05:08:27.815Z,52.39
2018-02-08T05:10:53.999Z,52.24
2018-02-08T05:13:20.222Z,52.15
2018-02-08T05:15:46.389Z,52.17
2018-02-08T05:18:12.561Z,52.25
2018-02-08T05:20:38.772Z,52.27
2018-02-08T05:23:04.947Z,52.41
2018-02-08T05:25:31.113Z,52.14
2018-02-08T05:27:57.341Z,52.21
2018-02-08T05:30:23.514Z,52.67
2018-02-08T05:32:49.962Z,52.22
2018-02-08T05:35:16.280Z,52.31
2018-02-08T05:37:42.440Z,52.15
2018-02-08T05:40:08.612Z,52.45
2018-02-08T05:42:35.280Z,52.28
2018-02-08T05:45:01.425Z,52.35
2018-02-08T05:47:27.602Z,51.83
2018-02-08T05:49:55.171Z,51.68
2018-02-08T05:52:21.356Z,51.53
2018-02-08T05:54:47.750Z,51.70
2018-02-08T05:57:14.282Z,51.87
2018-02-08T05:59:40.470Z,51.81
2018-02-08T06:02:06.623Z,51.83
2018-02-08T06:04:32.834Z,51.78
2018-02-08T06:06:59.007Z,51.80
2018-02-08T06:09:25.471Z,51.75
2018-02-08T06:11:52.001Z,51.79
2018-02-08T06:14:18.167Z,51.88
2018-02-08T06:16:44.387Z,51.96
2018-02-08T06:19:10.556Z,53.36
2018-02-08T06:21:36.715Z,53.43
2018-02-08T06:24:03.286Z,52.94
2018-02-08T06:26:29.448Z,52.61
2018-02-08T06:28:55.625Z,52.50
2018-02-08T06:31:22.185Z,52.48
2018-02-08T06:33:48.354Z,52.40
2018-02-08T06:36:14.502Z,52.30
2018-02-08T06:38:40.719Z,52.25
2018-02-08T06:41:06.878Z,52.19
2018-02-08T06:43:33.380Z,52.17
2018-02-08T06:45:59.614Z,51.98
2018-02-08T06:48:25.766Z,51.84
2018-02-08T06:50:52.169Z,51.75
2018-02-08T06:53:18.369Z,51.56
2018-02-08T06:55:44.547Z,51.61
2018-02-08T06:58:11.109Z,51.47
2018-02-08T07:00:37.295Z,51.50
2018-02-08T07:03:03.493Z,51.49
2018-02-08T07:05:29.703Z,51.49
2018-02-08T07:07:56.102Z,51.41
2018-02-08T07:10:22.270Z,51.23
2018-02-08T07:12:48.491Z,51.22
2018-02-08T07:15:14.643Z,51.26
2018-02-08T07:17:40.839Z,51.09
2018-02-08T07:20:10.905Z,51.20
2018-02-08T07:22:37.086Z,51.42
2018-02-08T07:25:03.252Z,51.13
2018-02-08T07:27:29.492Z,51.13
2018-02-08T07:29:56.016Z,51.25
2018-02-08T07:32:22.188Z,51.48
2018-02-08T07:34:48.801Z,51.44
2018-02-08T07:37:15.315Z,51.42
2018-02-08T07:39:41.467Z,51.44
2018-02-08T07:42:07.685Z,51.39
2018-02-08T07:44:33.963Z,51.33
2018-02-08T07:47:00.143Z,51.21
2018-02-08T07:49:26.334Z,51.13
2018-02-08T07:51:52.502Z,51.04
2018-02-08T07:54:18.724Z,50.83
2018-02-08T07:56:45.239Z,50.75
2018-02-08T07:59:11.422Z,50.60
2018-02-08T08:01:37.644Z,50.46
2018-02-08T08:04:04.131Z,50.38
2018-02-08T08:06:30.298Z,50.34
2018-02-08T08:08:56.606Z,50.30
2018-02-08T08:11:22.760Z,50.29
2018-02-08T08:13:49.247Z,50.29
2018-02-08T08:16:15.932Z,50.23
2018-02-08T08:18:42.114Z,50.23
2018-02-08T08:21:08.309Z,50.20
2018-02-08T08:23:34.511Z,50.14
2018-02-08T08:26:01.001Z,50.15
2018-02-08T08:28:27.183Z,50.14
2018-02-08T08:30:53.823Z,50.16
2018-02-08T08:33:19.994Z,50.08
2018-02-08T08:35:46.179Z,50.04
2018-02-08T08:38:13.106Z,49.89
2018-02-08T08:40:39.599Z,49.90
2018-02-08T08:43:05.765Z,49.81
2018-02-08T08:45:32.260Z,49.70
2018-02-08T08:47:58.421Z,49.56
2018-02-08T08:50:24.581Z,49.48
2018-02-08T08:52:51.139Z,49.40
2018-02-08T08:55:17.372Z,49.29
2018-02-08T08:57:43.539Z,49.21
2018-02-08T09:00:10.035Z,49.14
2018-02-08T09:02:36.218Z,49.11
2018-02-08T09:05:02.747Z,49.12
2018-02-08T09:07:28.909Z,49.05
2018-02-08T09:09:55.070Z,48.96
2018-02-08T09:12:21.655Z,48.95
2018-02-08T09:14:47.817Z,48.90
2018-02-08T09:17:14.013Z,48.84
2018-02-08T09:19:40.598Z,48.82
2018-02-08T09:22:06.754Z,48.85
2018-02-08T09:24:33.242Z,48.84
2018-02-08T09:26:59.830Z,48.68
2018-02-08T09:31:57.726Z,48.54
2018-02-08T09:34:23.936Z,48.52
2018-02-08T09:36:50.098Z,48.43
2018-02-08T09:39:16.259Z,48.38
2018-02-08T09:41:43.105Z,48.24
2018-02-08T09:44:09.271Z,48.23
2018-02-08T09:46:35.435Z,48.06
2018-02-08T09:49:01.644Z,48.00
2018-02-08T09:51:28.095Z,48.00
2018-02-08T09:53:54.258Z,48.04
2018-02-08T09:56:20.758Z,48.01
2018-02-08T09:58:46.926Z,48.02
2018-02-08T10:01:13.246Z,48.05
2018-02-08T10:03:39.470Z,48.05
2018-02-08T10:06:05.663Z,47.97
2018-02-08T10:08:31.889Z,47.94
2018-02-08T10:10:58.059Z,47.81
2018-02-08T10:13:24.236Z,47.79
2018-02-08T10:15:50.488Z,47.73
2018-02-08T10:18:16.642Z,47.69
2018-02-08T10:20:42.806Z,47.68
2018-02-08T10:23:09.034Z,47.63
2018-02-08T10:25:35.497Z,47.56
2018-02-08T10:28:01.932Z,47.53
2018-02-08T10:30:28.162Z,47.39
2018-02-08T10:32:54.690Z,47.22
2018-02-08T10:35:21.131Z,47.03
2018-02-08T10:37:47.340Z,46.93
2018-02-08T10:40:13.512Z,46.92
2018-02-08T10:42:39.667Z,46.99
2018-02-08T10:45:06.311Z,46.79
2018-02-08T10:47:32.494Z,46.80
2018-02-08T10:49:58.661Z,46.88
2018-02-08T10:52:24.931Z,46.93
2018-02-08T10:54:51.107Z,46.82
2018-02-08T10:57:17.266Z,46.84
2018-02-08T10:59:43.871Z,46.71
2018-02-08T11:02:10.090Z,46.56
2018-02-08T11:04:36.239Z,46.58
2018-02-08T11:07:02.484Z,46.64
2018-02-08T11:09:28.706Z,46.86
2018-02-08T11:11:55.560Z,46.88
2018-02-08T11:14:21.787Z,46.88
2018-02-08T11:16:47.987Z,46.87
2018-02-08T11:19:14.977Z,46.96
2018-02-08T11:21:41.162Z,46.62
2018-02-08T11:24:07.471Z,46.75
2018-02-08T11:26:33.882Z,46.85
2018-02-08T11:29:00.076Z,46.93
2018-02-08T11:31:26.301Z,47.03
2018-02-08T11:33:52.554Z,47.03
2018-02-08T11:36:18.801Z,47.06
2018-02-08T11:38:44.988Z,47.13
2018-02-08T11:41:12.749Z,47.08
2018-02-08T11:43:38.942Z,46.89
2018-02-08T11:46:05.146Z,46.61
2018-02-08T11:48:31.441Z,46.43
2018-02-08T11:50:57.647Z,46.55
2018-02-08T11:53:23.862Z,46.42
2018-02-08T11:55:50.447Z,46.57
2018-02-08T11:58:16.608Z,46.78
2018-02-08T12:00:42.779Z,46.86
2018-02-08T12:03:09.742Z,46.71
2018-02-08T12:05:36.181Z,46.78
2018-02-08T12:08:02.347Z,47.34
2018-02-08T12:10:29.252Z,47.64
2018-02-08T12:12:55.680Z,47.48
2018-02-08T12:15:21.883Z,47.53
2018-02-08T12:17:48.105Z,47.52
2018-02-08T12:20:14.638Z,47.54
2018-02-08T12:22:40.818Z,47.51
2018-02-08T12:25:07.134Z,47.50
2018-02-08T12:27:33.665Z,47.62
2018-02-08T12:29:59.828Z,47.47
2018-02-08T12:32:26.326Z,47.09
2018-02-08T12:34:52.500Z,46.83
2018-02-08T12:37:18.672Z,46.84
2018-02-08T12:39:44.900Z,46.84
2018-02-08T12:42:11.107Z,46.89
2018-02-08T12:44:37.569Z,46.83
2018-02-08T12:47:03.784Z,46.70
2018-02-08T12:49:30.789Z,46.60
2018-02-08T12:51:56.954Z,46.57
2018-02-08T12:54:23.153Z,46.52
2018-02-08T12:56:49.315Z,46.47
2018-02-08T12:59:16.318Z,46.44
2018-02-08T13:01:42.531Z,46.48
2018-02-08T13:04:08.737Z,46.52
2018-02-08T13:06:34.984Z,46.53
2018-02-08T13:09:01.202Z,46.56
2018-02-08T13:11:27.375Z,46.56
2018-02-08T13:13:53.626Z,46.65
2018-02-08T13:16:19.798Z,46.59
2018-02-08T13:18:46.297Z,46.58
2018-02-08T13:21:12.502Z,46.60
2018-02-08T13:23:38.679Z,46.53
2018-02-08T13:26:05.286Z,46.61
2018-02-08T13:28:31.468Z,46.50
2018-02-08T13:30:57.670Z,46.42
2018-02-08T13:33:23.918Z,46.36
2018-02-08T13:35:50.086Z,46.31
2018-02-08T13:38:16.297Z,46.30
2018-02-08T13:40:45.538Z,46.29
2018-02-08T13:43:11.724Z,46.15
2018-02-08T13:45:37.946Z,46.09
2018-02-08T13:48:10.556Z,46.29
2018-02-08T13:50:43.014Z,46.44
2018-02-08T13:53:15.711Z,46.51
2018-02-08T13:55:48.137Z,46.54
2018-02-08T13:58:20.399Z,46.53
2018-02-08T14:00:51.535Z,46.33
2018-02-08T14:03:17.770Z,46.19
2018-02-08T14:05:44.007Z,46.09
2018-02-08T14:08:10.208Z,46.13
2018-02-08T14:10:36.416Z,46.13
2018-02-08T14:13:02.621Z,46.19
2018-02-08T14:15:28.806Z,46.24
2018-02-08T14:17:55.040Z,46.33
2018-02-08T14:20:21.218Z,46.39
2018-02-08T14:22:47.389Z,46.48
2018-02-08T14:25:14.024Z,46.50
2018-02-08T14:27:40.281Z,46.53
2018-02-08T14:30:06.469Z,46.54
2018-02-08T14:32:32.944Z,46.56
2018-02-08T14:34:59.130Z,46.53
2018-02-08T14:37:25.291Z,46.52
2018-02-08T14:39:52.351Z,46.50
2018-02-08T14:42:18.544Z,46.49
2018-02-08T14:44:51.031Z,46.51
2018-02-08T14:47:17.510Z,46.40
2018-02-08T14:49:43.671Z,46.32
2018-02-08T14:52:10.174Z,46.18
2018-02-08T14:54:36.709Z,45.99
2018-02-08T14:57:02.887Z,45.83
2018-02-08T14:59:29.294Z,45.59
2018-02-08T15:01:55.522Z,45.12
2018-02-08T15:04:21.703Z,44.57
2018-02-08T15:06:47.864Z,44.41
2018-02-08T15:09:14.095Z,44.53
2018-02-08T15:11:40.247Z,44.71
2018-02-08T15:14:06.740Z,44.90
2018-02-08T15:16:33.437Z,45.05
2018-02-08T15:18:59.624Z,45.11
2018-02-08T15:21:25.795Z,45.11
2018-02-08T15:23:52.010Z,45.09
2018-02-08T15:26:18.404Z,45.06
2018-02-08T15:28:44.921Z,45.06
2018-02-08T15:31:11.512Z,45.08
2018-02-08T15:33:37.655Z,45.06
2018-02-08T15:36:03.820Z,45.06
2018-02-08T15:38:30.026Z,45.12
2018-02-08T15:40:56.216Z,45.13
2018-02-08T15:43:22.379Z,45.14
2018-02-08T15:45:48.985Z,45.21
2018-02-08T15:48:15.161Z,45.32
2018-02-08T15:50:41.412Z,45.44
2018-02-08T15:53:07.681Z,45.55
2018-02-08T15:55:33.862Z,45.61
2018-02-08T15:58:00.047Z,45.74
2018-02-08T16:00:26.244Z,45.85
2018-02-08T16:02:52.424Z,46.06
2018-02-08T16:05:18.700Z,46.30
2018-02-08T16:07:44.882Z,46.42
2018-02-08T16:10:11.057Z,46.51
2018-02-08T16:12:37.269Z,46.60
2018-02-08T16:15:03.490Z,46.73
2018-02-08T16:17:29.709Z,46.91
2018-02-08T16:19:55.885Z,46.99
2018-02-08T16:22:22.360Z,47.09
2018-02-08T16:24:48.560Z,47.15
2018-02-08T16:27:14.768Z,47.20
2018-02-08T16:29:41.006Z,47.23
2018-02-08T16:32:07.168Z,47.28
2018-02-08T16:34:33.337Z,47.29
2018-02-08T16:36:59.559Z,47.37
2018-02-08T16:39:26.055Z,47.41
2018-02-08T16:41:52.220Z,47.49
2018-02-08T16:44:18.435Z,47.59
2018-02-08T16:46:44.600Z,47.65
2018-02-08T16:49:10.778Z,47.61
2018-02-08T16:51:37.334Z,47.60
2018-02-08T16:54:03.831Z,47.68
2018-02-08T16:56:29.989Z,47.71
2018-02-08T16:58:56.457Z,47.78
2018-02-08T17:01:22.627Z,47.82
2018-02-08T17:03:48.797Z,47.91
2018-02-08T17:06:15.017Z,47.96
2018-02-08T17:08:41.516Z,47.94
2018-02-08T17:11:07.688Z,47.92
2018-02-08T17:13:33.918Z,47.94
2018-02-08T17:16:00.396Z,47.99
2018-02-08T17:18:26.829Z,48.06
2018-02-08T17:20:53.072Z,48.04
2018-02-08T17:23:19.233Z,48.07
2018-02-08T17:25:45.414Z,48.09
2018-02-08T17:28:11.573Z,48.07
2018-02-08T17:30:37.833Z,48.06
2018-02-08T17:33:04.003Z,48.06
2018-02-08T17:35:30.173Z,48.11
2018-02-08T17:37:56.402Z,48.14
2018-02-08T17:40:22.556Z,48.11
2018-02-08T17:42:48.726Z,48.10
2018-02-08T17:45:15.394Z,48.14
2018-02-08T17:47:41.559Z,48.18
2018-02-08T17:50:08.003Z,48.21
2018-02-08T17:52:34.946Z,48.27
2018-02-08T17:55:01.122Z,48.20
2018-02-08T17:57:27.281Z,48.16
2018-02-08T17:59:53.834Z,48.07
2018-02-08T18:02:20.263Z,48.06
2018-02-08T18:04:46.700Z,48.08
2018-02-08T18:07:12.919Z,48.10
2018-02-08T18:09:39.362Z,48.17
2018-02-08T18:12:05.516Z,48.16
2018-02-08T18:14:31.758Z,48.22
2018-02-08T18:16:57.980Z,48.20
2018-02-08T18:19:24.481Z,48.29
2018-02-08T18:21:50.678Z,48.41
2018-02-08T18:24:17.024Z,48.32
2018-02-08T18:26:43.586Z,48.43
2018-02-08T18:29:10.103Z,48.42
2018-02-08T18:31:36.296Z,48.43
2018-02-08T18:34:03.590Z,48.44
2018-02-08T18:36:29.842Z,48.57
2018-02-08T18:38:56.130Z,48.61
2018-02-08T18:41:22.357Z,48.81
2018-02-08T18:43:48.528Z,48.97
2018-02-08T18:46:14.671Z,49.09
2018-02-08T18:48:41.307Z,49.12
2018-02-08T18:51:07.459Z,49.14
2018-02-08T18:53:33.627Z,49.01
2018-02-08T18:55:59.874Z,48.66
2018-02-08T18:58:26.035Z,48.64
2018-02-08T19:00:52.206Z,48.76
2018-02-08T19:03:19.046Z,48.78
2018-02-08T19:05:45.196Z,48.72
2018-02-08T19:08:11.533Z,48.55
2018-02-08T19:10:37.723Z,48.51
2018-02-08T19:13:03.894Z,48.49
2018-02-08T19:15:30.820Z,48.45
2018-02-08T19:17:56.966Z,48.53
2018-02-08T19:20:23.135Z,48.55
2018-02-08T19:22:49.334Z,48.65
2018-02-08T19:25:15.492Z,48.66
2018-02-08T19:27:42.762Z,48.71
2018-02-08T19:30:08.996Z,48.92
2018-02-08T19:32:35.228Z,48.96
2018-02-08T19:35:01.428Z,49.08
2018-02-08T19:37:27.595Z,49.00
2018-02-08T19:39:53.773Z,48.94
2018-02-08T19:42:19.979Z,48.98
2018-02-08T19:44:46.139Z,48.97
2018-02-08T19:47:12.362Z,49.00
2018-02-08T19:49:38.511Z,49.00
2018-02-08T19:52:04.689Z,49.08
2018-02-08T19:54:31.163Z,49.15
2018-02-08T19:56:57.734Z,49.11
2018-02-08T19:59:24.310Z,49.18
2018-02-08T20:01:50.482Z,49.19
2018-02-08T20:04:16.664Z,49.17
2018-02-08T20:06:42.868Z,49.26
2018-02-08T20:09:09.034Z,49.22
2018-02-08T20:11:35.195Z,49.21
2018-02-08T20:14:02.528Z,49.09
2018-02-08T20:16:28.709Z,48.89
2018-02-08T20:18:54.851Z,49.07
2018-02-08T20:21:21.171Z,49.40
2018-02-08T20:23:47.361Z,49.52
2018-02-08T20:26:13.537Z,49.38
2018-02-08T20:28:40.156Z,49.20
2018-02-08T20:31:09.286Z,49.19
2018-02-08T20:33:35.506Z,49.21
2018-02-08T20:36:02.069Z,49.19
2018-02-08T20:38:28.237Z,49.30
2018-02-08T20:40:54.419Z,49.23
2018-02-08T20:43:26.718Z,49.41
2018-02-08T20:45:52.918Z,49.46
2018-02-08T20:48:19.173Z,49.37
2018-02-08T20:50:45.325Z,49.26
2018-02-08T20:53:11.482Z,49.43
2018-02-08T20:55:37.937Z,49.43
2018-02-08T20:58:04.099Z,49.34
2018-02-08T21:00:30.265Z,49.52
2018-02-08T21:02:56.813Z,49.57
2018-02-08T21:05:22.967Z,49.68
2018-02-08T21:07:49.482Z,49.60
2018-02-08T21:10:15.709Z,49.62
2018-02-08T21:12:41.882Z,49.58
2018-02-08T21:15:08.092Z,49.95
2018-02-08T21:17:35.107Z,50.10
2018-02-08T21:20:01.327Z,50.25
2018-02-08T21:22:28.182Z,50.52
2018-02-08T21:24:54.357Z,50.44
2018-02-08T21:27:20.519Z,50.38
2018-02-08T21:29:47.376Z,50.31
2018-02-08T21:32:13.600Z,50.36
2018-02-08T21:34:39.806Z,50.45
2018-02-08T21:37:06.019Z,50.46
2018-02-08T21:39:32.205Z,50.51
2018-02-08T21:41:58.727Z,50.49
2018-02-08T21:44:24.958Z,50.63
2018-02-08T21:46:51.184Z,50.69
2018-02-08T21:49:17.354Z,50.71
2018-02-08T21:51:44.283Z,50.76
2018-02-08T21:54:10.425Z,50.77
2018-02-08T21:56:36.597Z,50.81
2018-02-08T21:59:02.844Z,50.66
2018-02-08T22:01:29.263Z,50.58
2018-02-08T22:03:55.431Z,50.33
2018-02-08T22:06:21.697Z,50.56
2018-02-08T22:08:47.857Z,50.50
2018-02-08T22:11:14.021Z,50.64
2018-02-08T22:13:40.294Z,50.64
2018-02-08T22:16:06.737Z,50.70
2018-02-08T22:18:32.911Z,50.58
2018-02-08T22:20:59.114Z,50.46
2018-02-08T22:23:25.279Z,50.48
2018-02-08T22:25:51.865Z,50.49
2018-02-08T22:28:18.038Z,50.37
2018-02-08T22:30:44.212Z,50.25
2018-02-08T22:33:10.430Z,50.25
2018-02-08T22:35:36.671Z,50.30
2018-02-08T22:38:02.856Z,50.36
2018-02-08T22:40:29.063Z,50.48
2018-02-08T22:42:55.239Z,50.47
2018-02-08T22:45:21.775Z,50.46
2018-02-08T22:47:47.949Z,50.51
2018-02-08T22:50:14.115Z,50.47
2018-02-08T22:52:40.715Z,50.43
2018-02-08T22:55:06.889Z,50.50
2018-02-08T22:57:33.055Z,50.45
2018-02-08T22:59:59.268Z,50.48
2018-02-08T23:02:25.465Z,50.37
2018-02-08T23:04:51.711Z,50.01
2018-02-08T23:07:17.934Z,50.56
2018-02-08T23:09:44.093Z,50.40
2018-02-08T23:12:10.266Z,50.21
2018-02-08T23:14:36.478Z,50.36
2018-02-08T23:17:02.668Z,50.38
2018-02-08T23:19:28.837Z,50.30
2018-02-08T23:21:55.064Z,50.23
2018-02-08T23:24:21.227Z,50.33
2018-02-08T23:26:47.658Z,50.33
2018-02-08T23:29:14.247Z,50.35
2018-02-08T23:31:40.419Z,50.38
2018-02-08T23:34:06.579Z,50.36
2018-02-08T23:36:32.897Z,50.59
2018-02-08T23:38:59.082Z,50.70
2018-02-08T23:41:25.248Z,50.57
2018-02-08T23:43:51.492Z,50.52
2018-02-08T23:46:17.677Z,50.52
2018-02-08T23:48:43.845Z,50.39
2018-02-08T23:51:10.051Z,50.31
2018-02-08T23:53:36.208Z,50.48
2018-02-08T23:56:02.413Z,50.50
2018-02-08T23:58:28.574Z,50.49
